Time;durP1;ratioP1;P1;durP2;ratioP2;P2;SDS_P1;SDS_P2;PMS_P1;PMS_P2;Temp;Humidity;BMP_temperature;BMP_pressure;BME280_temperature;BME280_humidity;BME280_pressure;Samples;Min_cycle;Max_cycle;Signal;HPM_P1;HPM_P2
2023/10/07 00:02:12;;;;;;;17.17;5.53;;;17.20;99.90;;;;;;5054984;28;20056;-77
2023/10/07 00:04:42;;;;;;;19.10;5.55;;;17.10;99.90;;;;;;5054698;28;20041;-77
2023/10/07 00:07:11;;;;;;;23.00;6.53;;;17.10;99.90;;;;;;5055088;28;20057;-77
2023/10/07 00:09:43;;;;;;;17.60;5.40;;;17.10;99.90;;;;;;5054855;28;20056;-77
2023/10/07 00:12:14;;;;;;;21.20;5.53;;;17.10;99.90;;;;;;5054501;28;20088;-77
2023/10/07 00:14:41;;;;;;;18.63;5.65;;;17.10;99.90;;;;;;5054508;28;20052;-77
2023/10/07 00:17:16;;;;;;;20.83;5.28;;;17.00;99.90;;;;;;5054492;28;20052;-77
2023/10/07 00:19:43;;;;;;;19.25;5.47;;;17.00;99.90;;;;;;5054740;28;20130;-77
2023/10/07 00:22:09;;;;;;;18.77;4.85;;;17.00;99.90;;;;;;5054203;28;20071;-77
2023/10/07 00:24:42;;;;;;;15.25;4.88;;;16.90;99.90;;;;;;5054273;28;20102;-77
2023/10/07 00:27:26;;;;;;;17.77;4.85;;;16.90;99.90;;;;;;5053300;28;20045;-77
2023/10/07 00:29:55;;;;;;;21.83;6.22;;;17.00;99.90;;;;;;5054234;28;20049;-77
2023/10/07 00:32:28;;;;;;;17.73;5.22;;;16.90;99.90;;;;;;5054169;28;20473;-77
2023/10/07 00:34:55;;;;;;;18.23;5.78;;;16.90;99.90;;;;;;5054048;28;20458;-77
2023/10/07 00:37:23;;;;;;;23.67;4.85;;;16.90;99.90;;;;;;5054364;28;20045;-77
2023/10/07 00:39:52;;;;;;;23.33;5.15;;;17.00;99.90;;;;;;5053727;28;20061;-77
2023/10/07 00:42:19;;;;;;;25.25;5.75;;;17.00;99.90;;;;;;5053957;28;20135;-77
2023/10/07 00:44:47;;;;;;;19.48;5.88;;;17.00;99.90;;;;;;5053816;28;20045;-77
2023/10/07 00:47:13;;;;;;;24.27;5.53;;;16.90;99.90;;;;;;5054266;28;20045;-77
2023/10/07 00:49:53;;;;;;;23.95;5.80;;;16.90;99.90;;;;;;5055233;28;20148;-77
2023/10/07 00:52:28;;;;;;;21.20;5.25;;;16.90;99.90;;;;;;5053993;28;20041;-77
2023/10/07 01:00:00;;;;;;;22.05;5.60;;;16.90;99.90;;;;;;5054067;28;20059;-77
2023/10/07 01:02:31;;;;;;;21.60;5.50;;;16.80;99.90;;;;;;5053557;28;20056;-77
2023/10/07 01:05:06;;;;;;;24.25;5.95;;;16.80;99.90;;;;;;5053637;28;20205;-77
2023/10/07 01:07:34;;;;;;;22.17;4.80;;;16.80;99.90;;;;;;5053796;28;20049;-77
2023/10/07 01:10:54;;;;;;;25.25;5.32;;;16.90;99.90;;;;;;5053561;28;20068;-77
2023/10/07 01:12:48;;;;;;;22.90;4.90;;;16.90;99.90;;;;;;5042854;28;20056;-77
2023/10/07 01:17:55;;;;;;;28.98;5.32;;;16.90;99.90;;;;;;5054573;28;20072;-76
2023/10/07 01:20:33;;;;;;;23.33;5.93;;;16.90;99.90;;;;;;5053393;28;20124;-77
2023/10/07 01:23:07;;;;;;;20.92;5.47;;;16.90;99.90;;;;;;5053150;28;20052;-76
2023/10/07 01:25:44;;;;;;;23.33;5.03;;;16.90;99.90;;;;;;5053154;28;20056;-77
2023/10/07 01:28:14;;;;;;;22.23;5.93;;;16.90;99.90;;;;;;5053384;28;20045;-76
2023/10/07 01:33:47;;;;;;;24.63;5.65;;;16.90;99.90;;;;;;5012654;28;20556;-76
2023/10/07 01:36:24;;;;;;;24.52;5.35;;;16.90;99.90;;;;;;5041517;28;20049;-76
2023/10/07 01:38:53;;;;;;;22.90;4.70;;;16.90;99.90;;;;;;5052653;28;20053;-76
2023/10/07 01:41:20;;;;;;;27.52;5.28;;;16.90;99.90;;;;;;5052983;28;20055;-77
2023/10/07 01:44:00;;;;;;;21.75;5.00;;;17.00;99.90;;;;;;5054213;28;20067;-76
2023/10/07 01:46:31;;;;;;;17.15;5.63;;;16.90;99.90;;;;;;5053078;28;20048;-76
2023/10/07 01:49:01;;;;;;;21.20;5.53;;;16.90;99.90;;;;;;5052738;28;20400;-76
2023/10/07 01:51:27;;;;;;;22.38;6.05;;;17.00;99.90;;;;;;5052770;28;20037;-76
2023/10/07 01:53:58;;;;;;;27.27;6.65;;;16.90;99.90;;;;;;5052415;28;20398;-77
2023/10/07 01:56:26;;;;;;;23.30;5.85;;;17.00;99.90;;;;;;5052809;28;20037;-76
2023/10/07 01:59:03;;;;;;;24.27;5.60;;;17.00;99.90;;;;;;5052638;28;20041;-76
2023/10/07 02:01:29;;;;;;;21.58;4.43;;;17.00;99.90;;;;;;5052542;28;20516;-76
2023/10/07 02:03:59;;;;;;;20.55;5.18;;;17.00;99.90;;;;;;5052294;28;20171;-76
2023/10/07 02:06:26;;;;;;;21.38;5.82;;;17.00;99.90;;;;;;5052546;28;20052;-76
2023/10/07 02:08:54;;;;;;;20.67;4.72;;;17.00;99.90;;;;;;5053631;28;20087;-76
2023/10/07 02:11:28;;;;;;;26.45;5.15;;;17.00;99.90;;;;;;5052550;28;20037;-76
2023/10/07 02:13:55;;;;;;;18.83;5.00;;;17.00;99.90;;;;;;5052502;28;20053;-77
2023/10/07 02:16:21;;;;;;;19.15;5.75;;;17.00;99.90;;;;;;5053583;28;20118;-77
2023/10/07 02:18:47;;;;;;;22.50;5.18;;;17.00;99.90;;;;;;5052179;28;20099;-77
2023/10/07 02:21:16;;;;;;;18.92;6.35;;;17.00;99.90;;;;;;5053426;28;20532;-76
2023/10/07 02:23:45;;;;;;;17.35;4.85;;;17.10;99.90;;;;;;5052439;28;20150;-76
2023/10/07 02:26:19;;;;;;;23.75;5.38;;;17.00;99.90;;;;;;5052452;28;20163;-77
2023/10/07 02:28:46;;;;;;;26.10;5.78;;;17.10;99.90;;;;;;5052236;28;20048;-76
2023/10/07 02:31:15;;;;;;;25.15;5.65;;;17.10;99.90;;;;;;5053235;28;20376;-76
2023/10/07 02:33:52;;;;;;;25.98;5.20;;;17.10;99.90;;;;;;5051934;28;20485;-76
2023/10/07 02:36:37;;;;;;;19.52;5.15;;;17.10;99.90;;;;;;5052428;28;20053;-76
2023/10/07 02:39:26;;;;;;;24.58;4.78;;;17.00;99.90;;;;;;5051757;28;20048;-77
2023/10/07 02:41:53;;;;;;;21.77;5.57;;;17.00;99.90;;;;;;5053380;28;20060;-76
2023/10/07 02:44:28;;;;;;;22.38;5.75;;;17.10;99.90;;;;;;5052182;28;20492;-76
2023/10/07 02:46:56;;;;;;;27.38;5.43;;;17.10;99.90;;;;;;5052508;28;20041;-77
2023/10/07 02:49:21;;;;;;;25.63;6.07;;;17.10;99.90;;;;;;5052285;28;20064;-76
2023/10/07 02:51:57;;;;;;;23.23;5.75;;;17.00;99.90;;;;;;5054409;28;20041;-76
2023/10/07 02:54:32;;;;;;;24.17;6.63;;;17.10;99.90;;;;;;5055889;28;20053;-77
2023/10/07 02:57:08;;;;;;;26.20;5.28;;;17.10;99.90;;;;;;5056289;28;20068;-76
2023/10/07 02:59:35;;;;;;;25.27;5.75;;;17.00;99.90;;;;;;5056773;28;20483;-76
2023/10/07 03:02:12;;;;;;;21.98;5.55;;;17.10;99.90;;;;;;5056158;28;20053;-76
2023/10/07 03:04:42;;;;;;;23.75;5.07;;;17.10;99.90;;;;;;5056000;28;20052;-76
2023/10/07 03:07:14;;;;;;;19.05;5.35;;;17.00;99.90;;;;;;5055716;28;20607;-77
2023/10/07 03:09:51;;;;;;;21.85;5.82;;;17.00;99.90;;;;;;5055811;28;20048;-76
2023/10/07 03:12:27;;;;;;;24.50;6.93;;;17.10;99.90;;;;;;5057542;28;20080;-77
2023/10/07 03:14:55;;;;;;;20.50;4.93;;;17.00;99.90;;;;;;5055734;28;20048;-76
2023/10/07 03:17:21;;;;;;;24.70;5.93;;;17.10;99.90;;;;;;5055460;28;20048;-77
2023/10/07 03:19:56;;;;;;;23.40;5.43;;;17.00;99.90;;;;;;5055342;28;20453;-76
2023/10/07 03:22:31;;;;;;;21.75;6.32;;;17.10;99.90;;;;;;5055356;28;20120;-77
2023/10/07 03:25:00;;;;;;;22.38;5.13;;;17.10;99.90;;;;;;5055491;28;20052;-76
2023/10/07 03:27:26;;;;;;;28.27;6.28;;;17.00;99.90;;;;;;5055392;28;20132;-76
2023/10/07 03:30:13;;;;;;;25.70;5.10;;;17.10;99.90;;;;;;5055282;28;20128;-77
2023/10/07 03:32:55;;;;;;;21.52;6.20;;;17.10;99.90;;;;;;5055274;28;20125;-76
2023/10/07 03:35:46;;;;;;;17.30;5.50;;;17.00;99.90;;;;;;5056584;28;20037;-77
2023/10/07 03:38:11;;;;;;;25.42;5.25;;;17.00;99.90;;;;;;5056534;28;20053;-76
2023/10/07 03:40:38;;;;;;;20.17;6.20;;;17.00;99.90;;;;;;5055058;28;20377;-76
2023/10/07 03:43:08;;;;;;;22.63;5.38;;;17.00;99.90;;;;;;5055083;28;20088;-76
2023/10/07 03:45:36;;;;;;;23.77;5.43;;;17.00;99.90;;;;;;5055316;28;20087;-76
2023/10/07 03:48:20;;;;;;;21.23;5.10;;;17.00;99.90;;;;;;5055114;28;20052;-76
2023/10/07 03:50:48;;;;;;;21.98;5.00;;;17.00;99.90;;;;;;5055183;28;20515;-76
2023/10/07 03:53:15;;;;;;;24.55;5.93;;;17.00;99.90;;;;;;5054760;28;20507;-76
2023/10/07 03:55:43;;;;;;;19.13;5.90;;;17.00;99.90;;;;;;5056086;28;20397;-77
2023/10/07 03:58:08;;;;;;;24.70;6.70;;;17.00;99.90;;;;;;5054882;28;20053;-76
2023/10/07 04:00:35;;;;;;;22.35;5.65;;;17.00;99.90;;;;;;5054896;28;20049;-76
2023/10/07 04:03:07;;;;;;;28.05;5.32;;;17.00;99.90;;;;;;5054880;28;20057;-76
2023/10/07 04:05:37;;;;;;;19.52;5.75;;;17.00;99.90;;;;;;5055145;28;20048;-77
2023/10/07 04:08:03;;;;;;;27.27;5.55;;;17.00;99.90;;;;;;5054896;28;20045;-76
2023/10/07 04:10:36;;;;;;;23.27;6.10;;;17.00;99.90;;;;;;5055991;28;20404;-77
2023/10/07 04:13:07;;;;;;;20.08;5.55;;;17.00;99.90;;;;;;5054418;28;20531;-77
2023/10/07 04:15:44;;;;;;;25.38;5.78;;;17.00;99.90;;;;;;5055723;28;20044;-77
2023/10/07 04:18:10;;;;;;;21.45;5.75;;;17.00;99.90;;;;;;5054704;28;20048;-76
2023/10/07 04:20:51;;;;;;;23.30;5.57;;;17.00;99.90;;;;;;5054691;28;20053;-76
2023/10/07 04:23:24;;;;;;;23.00;6.68;;;16.90;99.90;;;;;;5055657;28;20127;-76
2023/10/07 04:25:56;;;;;;;30.20;5.30;;;17.00;99.90;;;;;;5054535;28;20045;-76
2023/10/07 04:28:28;;;;;;;20.27;5.78;;;17.00;99.90;;;;;;5054562;28;20049;-77
2023/10/07 04:30:53;;;;;;;24.50;5.35;;;17.00;99.90;;;;;;5055416;28;20067;-76
2023/10/07 04:33:32;;;;;;;17.58;4.57;;;17.00;99.90;;;;;;5054168;28;20540;-76
2023/10/07 04:36:03;;;;;;;17.63;5.75;;;17.00;99.90;;;;;;5055506;28;20063;-76
2023/10/07 04:43:58;;;;;;;22.67;4.68;;;16.90;99.90;;;;;;5054306;28;20060;-76
2023/10/07 04:46:42;;;;;;;24.10;5.45;;;16.90;99.90;;;;;;5055247;28;20037;-77
2023/10/07 04:49:14;;;;;;;17.23;5.20;;;16.90;99.90;;;;;;5053960;28;20120;-76
2023/10/07 04:54:10;;;;;;;19.67;3.92;;;16.90;99.90;;;;;;5053951;28;20060;-76
2023/10/07 04:56:37;;;;;;;20.92;4.38;;;17.00;99.90;;;;;;5054038;28;20045;-77
2023/10/07 04:59:06;;;;;;;24.00;4.22;;;17.00;99.90;;;;;;5053820;28;20125;-76
2023/10/07 05:01:35;;;;;;;20.65;4.95;;;17.00;99.90;;;;;;5054840;28;20041;-77
2023/10/07 05:04:09;;;;;;;17.98;4.93;;;16.90;99.90;;;;;;5053546;28;20033;-77
2023/10/07 05:06:38;;;;;;;24.52;5.22;;;16.90;99.90;;;;;;5053630;28;20127;-77
2023/10/07 05:09:09;;;;;;;21.85;4.78;;;16.90;99.90;;;;;;5053733;28;20032;-76
2023/10/07 05:11:40;;;;;;;24.85;4.97;;;16.90;99.90;;;;;;5055014;28;20083;-76
2023/10/07 05:14:10;;;;;;;22.80;5.47;;;16.90;99.90;;;;;;5052625;28;20118;-77
2023/10/07 05:16:37;;;;;;;18.20;4.72;;;16.90;99.90;;;;;;5053612;28;20126;-77
2023/10/07 05:19:04;;;;;;;18.73;4.68;;;16.90;99.90;;;;;;5041824;28;20053;-77
2023/10/07 05:21:37;;;;;;;22.58;5.22;;;16.90;99.90;;;;;;5033305;28;20049;-77
2023/10/07 05:24:04;;;;;;;18.98;4.97;;;16.90;99.90;;;;;;5034449;28;20076;-77
2023/10/07 05:26:31;;;;;;;21.75;4.85;;;16.90;99.90;;;;;;5033196;28;20052;-77
2023/10/07 05:29:01;;;;;;;20.48;5.00;;;16.80;99.90;;;;;;5034524;28;20045;-76
2023/10/07 05:31:30;;;;;;;16.02;4.53;;;16.90;99.90;;;;;;5033141;28;20474;-77
2023/10/07 05:33:59;;;;;;;16.63;4.32;;;16.80;99.90;;;;;;5033147;28;20067;-77
2023/10/07 05:36:30;;;;;;;18.98;4.70;;;16.90;99.90;;;;;;5032997;28;20049;-77
2023/10/07 05:38:56;;;;;;;17.48;4.53;;;16.90;99.90;;;;;;5032753;28;20069;-76
2023/10/07 05:41:25;;;;;;;21.17;5.10;;;16.90;99.90;;;;;;5032814;28;20057;-76
2023/10/07 05:43:51;;;;;;;21.75;3.92;;;16.80;99.90;;;;;;5033168;28;20057;-77
2023/10/07 05:46:19;;;;;;;18.58;4.80;;;16.90;99.90;;;;;;5034208;28;20033;-76
2023/10/07 05:48:45;;;;;;;17.73;5.00;;;16.90;99.90;;;;;;5034061;28;20115;-76
2023/10/07 05:51:11;;;;;;;19.63;4.68;;;16.80;99.90;;;;;;5032695;28;20120;-77
2023/10/07 05:53:39;;;;;;;25.02;5.15;;;16.70;99.90;;;;;;5033859;28;20046;-76
2023/10/07 05:56:06;;;;;;;18.05;4.22;;;16.80;99.90;;;;;;5034224;28;20500;-76
2023/10/07 05:58:39;;;;;;;22.40;5.78;;;16.80;99.90;;;;;;5032047;28;20077;-77
2023/10/07 06:01:08;;;;;;;22.27;4.68;;;16.80;99.90;;;;;;5033814;28;20038;-77
2023/10/07 06:03:46;;;;;;;19.48;4.20;;;16.60;99.90;;;;;;5032368;28;20378;-77
2023/10/07 06:06:15;;;;;;;16.70;4.72;;;16.80;99.90;;;;;;5032461;28;20103;-77
2023/10/07 06:08:41;;;;;;;23.50;4.30;;;16.60;99.90;;;;;;5033775;28;20482;-77
2023/10/07 06:11:10;;;;;;;22.75;5.18;;;16.70;99.90;;;;;;5033314;28;20041;-78
2023/10/07 06:13:37;;;;;;;22.83;4.45;;;16.70;99.90;;;;;;5032281;28;20049;-78
2023/10/07 06:16:04;;;;;;;19.10;4.60;;;16.70;99.90;;;;;;5032220;28;20056;-78
2023/10/07 06:18:33;;;;;;;14.02;4.18;;;16.60;99.90;;;;;;5043308;28;20052;-76
2023/10/07 06:21:17;;;;;;;17.90;4.15;;;16.60;99.90;;;;;;5033581;28;20072;-77
2023/10/07 06:23:43;;;;;;;19.08;4.93;;;16.70;99.90;;;;;;5031995;28;20132;-77
2023/10/07 06:26:09;;;;;;;18.17;3.72;;;16.60;99.90;;;;;;5032059;28;20125;-79
2023/10/07 06:28:35;;;;;;;16.75;4.00;;;16.70;99.90;;;;;;5031856;28;20081;-77
2023/10/07 06:33:59;;;;;;;20.95;4.60;;;16.60;99.90;;;;;;5033273;28;20119;-77
2023/10/07 06:36:27;;;;;;;21.30;5.03;;;16.60;99.90;;;;;;5032059;28;20088;-78
2023/10/07 06:38:58;;;;;;;19.63;4.28;;;16.60;99.90;;;;;;5031587;28;20066;-77
2023/10/07 06:41:25;;;;;;;16.38;4.35;;;16.50;99.90;;;;;;5032109;28;20078;-77
2023/10/07 06:43:51;;;;;;;21.48;4.13;;;16.50;99.90;;;;;;5032066;28;20049;-77
2023/10/07 06:46:20;;;;;;;17.70;5.50;;;16.70;99.90;;;;;;5033273;28;20132;-77
2023/10/07 06:48:49;;;;;;;18.20;4.32;;;16.70;99.90;;;;;;5031757;28;20045;-77
2023/10/07 06:51:16;;;;;;;18.90;3.97;;;16.60;99.90;;;;;;5031750;28;20033;-77
2023/10/07 06:53:45;;;;;;;24.20;4.78;;;16.60;99.90;;;;;;5033084;28;20037;-77
2023/10/07 06:56:21;;;;;;;15.90;4.30;;;16.50;99.90;;;;;;5031889;28;20037;-77
2023/10/07 06:58:53;;;;;;;27.83;4.88;;;16.50;99.90;;;;;;5031698;28;20060;-77
2023/10/07 07:01:35;;;;;;;21.63;4.45;;;16.60;99.90;;;;;;5031951;28;20053;-77
2023/10/07 07:04:10;;;;;;;12.45;4.40;;;16.50;99.90;;;;;;5031900;28;20098;-77
2023/10/07 07:06:44;;;;;;;21.77;4.35;;;16.60;99.90;;;;;;5032891;28;20490;-77
2023/10/07 07:12:03;;;;;;;19.38;4.00;;;16.50;99.90;;;;;;5031436;28;20136;-77
2023/10/07 07:14:30;;;;;;;18.80;4.20;;;16.60;99.90;;;;;;5031436;28;20072;-77
2023/10/07 07:17:28;;;;;;;17.98;4.25;;;16.60;99.90;;;;;;5031452;28;20046;-77
2023/10/07 07:20:18;;;;;;;22.88;4.80;;;16.60;99.90;;;;;;5031351;28;20049;-78
2023/10/07 07:22:34;;;;;;;22.08;5.00;;;16.60;99.90;;;;;;5032441;28;20049;-77
2023/10/07 07:25:05;;;;;;;19.90;4.38;;;16.60;99.90;;;;;;5031621;28;20061;-77
2023/10/07 07:27:34;;;;;;;20.75;5.47;;;16.60;99.90;;;;;;5031585;28;20084;-77
2023/10/07 07:30:04;;;;;;;18.75;5.00;;;16.50;99.90;;;;;;5031551;28;20050;-77
2023/10/07 07:32:35;;;;;;;21.38;4.70;;;16.60;99.90;;;;;;5031388;28;20440;-77
2023/10/07 07:35:04;;;;;;;22.52;5.00;;;16.60;99.90;;;;;;5032492;28;20055;-77
2023/10/07 07:37:33;;;;;;;16.63;4.60;;;16.60;99.90;;;;;;5033036;28;20081;-77
2023/10/07 07:40:28;;;;;;;16.10;4.40;;;16.60;99.90;;;;;;5034809;28;20501;-77
2023/10/07 07:42:55;;;;;;;22.45;4.95;;;16.50;99.90;;;;;;5034926;28;20049;-77
2023/10/07 07:45:27;;;;;;;15.48;4.88;;;16.60;99.90;;;;;;5034680;28;20037;-77
2023/10/07 07:47:53;;;;;;;20.75;5.22;;;16.70;99.90;;;;;;5034756;28;20456;-78
2023/10/07 07:50:20;;;;;;;19.20;5.63;;;16.60;99.90;;;;;;5036166;28;20049;-77
2023/10/07 07:52:49;;;;;;;19.15;4.65;;;16.70;99.90;;;;;;5034790;28;20436;-78
2023/10/07 07:55:18;;;;;;;17.30;4.70;;;16.70;99.90;;;;;;5035130;28;20053;-77
2023/10/07 07:57:44;;;;;;;20.67;5.43;;;16.60;99.90;;;;;;5034796;28;20099;-77
2023/10/07 08:00:22;;;;;;;20.73;4.72;;;16.60;99.90;;;;;;5034509;28;20440;-77
2023/10/07 08:02:55;;;;;;;22.23;5.05;;;16.60;99.90;;;;;;5034591;28;20045;-77
2023/10/07 08:05:21;;;;;;;23.00;6.30;;;16.60;99.90;;;;;;5034464;28;20120;-77
2023/10/07 08:07:51;;;;;;;23.48;5.53;;;16.70;99.90;;;;;;5034588;28;20128;-77
2023/10/07 08:10:20;;;;;;;15.75;5.07;;;16.80;99.90;;;;;;5034466;28;20049;-77
2023/10/07 08:12:47;;;;;;;16.77;4.20;;;16.70;99.90;;;;;;5034084;28;20408;-76
2023/10/07 08:17:39;;;;;;;18.67;4.63;;;16.70;99.90;;;;;;5034413;28;20523;-76
2023/10/07 08:20:13;;;;;;;16.50;4.57;;;16.60;99.90;;;;;;5034183;28;20107;-81
2023/10/07 08:22:51;;;;;;;17.95;5.65;;;16.70;99.90;;;;;;5035337;28;20394;-78
2023/10/07 08:25:37;;;;;;;20.13;5.18;;;16.80;99.90;;;;;;5030116;28;20041;-77
2023/10/07 08:28:19;;;;;;;20.20;4.78;;;16.80;99.90;;;;;;5042464;28;20438;-76
2023/10/07 08:30:48;;;;;;;19.30;4.97;;;16.70;99.90;;;;;;5049335;28;20045;-77
2023/10/07 08:33:15;;;;;;;22.30;5.18;;;16.80;99.90;;;;;;5049260;28;20049;-76
2023/10/07 08:35:44;;;;;;;21.85;4.80;;;16.80;99.90;;;;;;5049533;28;20540;-77
2023/10/07 08:38:22;;;;;;;19.98;4.80;;;16.80;99.90;;;;;;5051567;28;20080;-77
2023/10/07 08:40:59;;;;;;;18.33;4.60;;;16.80;99.90;;;;;;5049474;28;20103;-76
2023/10/07 08:43:32;;;;;;;19.58;5.03;;;16.80;99.90;;;;;;5050121;28;20045;-78
2023/10/07 08:46:01;;;;;;;17.23;5.25;;;17.00;99.90;;;;;;5051118;28;20063;-77
2023/10/07 08:48:30;;;;;;;17.08;4.57;;;17.00;99.90;;;;;;5047568;28;20055;-79
2023/10/07 08:50:55;;;;;;;21.10;5.03;;;16.90;99.90;;;;;;5048781;28;20492;-78
2023/10/07 08:53:25;;;;;;;19.73;4.43;;;16.90;99.90;;;;;;5049633;28;20045;-78
2023/10/07 08:55:54;;;;;;;20.33;5.60;;;17.00;99.90;;;;;;5050356;28;20457;-74
2023/10/07 08:58:25;;;;;;;22.42;5.38;;;16.90;99.90;;;;;;5048512;28;20408;-77
2023/10/07 09:00:52;;;;;;;22.25;5.18;;;17.00;99.90;;;;;;5048897;28;20048;-78
2023/10/07 09:03:19;;;;;;;19.30;5.57;;;17.00;99.90;;;;;;5049544;28;20052;-78
2023/10/07 09:05:48;;;;;;;19.48;4.78;;;17.00;99.90;;;;;;5050136;28;20072;-77
2023/10/07 09:08:15;;;;;;;26.23;5.25;;;17.10;99.90;;;;;;5048279;28;20109;-77
2023/10/07 09:10:45;;;;;;;19.85;5.55;;;17.00;99.90;;;;;;5048962;28;20079;-77
2023/10/07 09:13:19;;;;;;;23.58;5.75;;;17.10;99.90;;;;;;5049458;28;20048;-77
2023/10/07 09:15:46;;;;;;;17.92;5.53;;;17.10;99.90;;;;;;5049743;28;20535;-77
2023/10/07 09:18:17;;;;;;;21.55;5.07;;;17.10;99.90;;;;;;5048310;28;20045;-77
2023/10/07 09:20:45;;;;;;;19.55;4.90;;;17.00;99.90;;;;;;5048509;28;20056;-77
2023/10/07 09:23:20;;;;;;;24.98;5.60;;;17.00;99.90;;;;;;5050234;28;20613;-77
2023/10/07 09:25:50;;;;;;;32.17;6.53;;;17.00;99.90;;;;;;5048804;28;20037;-77
2023/10/07 09:28:19;;;;;;;24.10;6.38;;;17.00;99.90;;;;;;5048477;28;20072;-76
2023/10/07 09:30:46;;;;;;;22.35;5.70;;;17.00;99.90;;;;;;5048218;28;20045;-76
2023/10/07 09:33:18;;;;;;;27.63;5.93;;;17.00;99.90;;;;;;5049027;28;20049;-77
2023/10/07 09:36:23;;;;;;;19.92;5.15;;;17.00;99.90;;;;;;5048125;28;20045;-79
2023/10/07 09:38:41;;;;;;;23.77;5.70;;;17.00;99.90;;;;;;5049176;28;20053;-77
2023/10/07 09:43:48;;;;;;;25.30;5.70;;;17.00;99.90;;;;;;5028906;28;20050;-78
2023/10/07 09:46:18;;;;;;;20.42;4.88;;;17.00;99.90;;;;;;5028462;28;20456;-77
2023/10/07 09:48:45;;;;;;;22.00;5.53;;;17.10;99.90;;;;;;5027911;28;20045;-78
2023/10/07 09:51:23;;;;;;;22.40;6.28;;;17.00;99.90;;;;;;5028171;28;20056;-77
2023/10/07 09:53:51;;;;;;;23.73;5.90;;;17.00;99.90;;;;;;5028409;28;20500;-76
2023/10/07 09:56:24;;;;;;;25.38;5.40;;;17.10;99.90;;;;;;5028804;28;20048;-78
2023/10/07 09:59:16;;;;;;;21.25;6.03;;;17.00;99.90;;;;;;5028285;28;20096;-78
2023/10/07 10:02:06;;;;;;;21.98;6.43;;;17.10;99.90;;;;;;5028553;28;20049;-78
2023/10/07 10:04:59;;;;;;;19.77;5.80;;;17.00;99.90;;;;;;4990201;28;20608;-77
2023/10/07 10:07:56;;;;;;;20.67;5.13;;;17.00;99.90;;;;;;5028699;28;20053;-78
2023/10/07 10:10:31;;;;;;;17.73;5.78;;;17.10;99.90;;;;;;5027893;28;20057;-78
2023/10/07 10:18:35;;;;;;;24.10;6.10;;;17.20;99.90;;;;;;5047885;28;20065;-79
2023/10/07 10:21:04;;;;;;;17.95;6.20;;;17.20;99.90;;;;;;5047151;28;20060;-81
2023/10/07 10:23:33;;;;;;;23.17;5.85;;;17.20;99.90;;;;;;5047777;28;20053;-81
2023/10/07 10:26:13;;;;;;;20.02;5.65;;;17.30;99.90;;;;;;5046968;28;20254;-83
2023/10/07 10:28:41;;;;;;;22.55;6.13;;;17.20;99.90;;;;;;5047532;28;20060;-76
2023/10/07 10:31:22;;;;;;;24.17;5.80;;;17.30;99.90;;;;;;5048082;28;20239;-78
2023/10/07 10:33:52;;;;;;;23.48;5.93;;;17.40;99.90;;;;;;5049216;28;20045;-78
2023/10/07 10:36:23;;;;;;;18.30;6.05;;;17.50;99.90;;;;;;5047778;28;20103;-77
2023/10/07 10:38:49;;;;;;;29.23;6.22;;;17.50;99.90;;;;;;5047244;28;20052;-76
2023/10/07 10:41:26;;;;;;;21.50;5.63;;;17.60;99.90;;;;;;5047019;28;20447;-77
2023/10/07 10:44:06;;;;;;;17.83;5.55;;;17.60;99.90;;;;;;5048462;28;20477;-77
2023/10/07 10:46:48;;;;;;;22.88;5.95;;;17.60;99.90;;;;;;5027379;28;20054;-78
2023/10/07 10:49:20;;;;;;;20.73;5.38;;;17.70;99.90;;;;;;5029153;28;20063;-77
2023/10/07 10:51:48;;;;;;;23.13;5.87;;;17.60;99.90;;;;;;5032288;28;20068;-78
2023/10/07 10:54:23;;;;;;;23.17;6.07;;;17.60;99.90;;;;;;5032908;28;20486;-78
2023/10/07 10:56:50;;;;;;;24.30;5.50;;;17.60;99.90;;;;;;5031978;28;20648;-77
2023/10/07 10:59:18;;;;;;;18.08;5.90;;;17.60;99.90;;;;;;5031777;28;20512;-77
2023/10/07 11:01:45;;;;;;;25.42;5.57;;;17.60;99.90;;;;;;5031977;28;20050;-77
2023/10/07 11:04:15;;;;;;;16.30;5.43;;;17.60;99.90;;;;;;5033022;28;20077;-77
2023/10/07 11:06:40;;;;;;;21.02;6.15;;;17.60;99.90;;;;;;5031883;28;20107;-78
2023/10/07 11:09:09;;;;;;;18.30;5.53;;;17.60;99.90;;;;;;5032917;28;20413;-78
2023/10/07 11:11:35;;;;;;;22.27;6.32;;;17.50;99.90;;;;;;5032338;28;20504;-77
2023/10/07 11:14:13;;;;;;;25.83;6.38;;;17.50;99.90;;;;;;5045824;28;20045;-77
2023/10/07 11:16:49;;;;;;;26.33;6.80;;;17.50;99.90;;;;;;5035320;28;20057;-77
2023/10/07 11:19:19;;;;;;;23.10;6.57;;;17.40;99.90;;;;;;5035138;28;20049;-77
2023/10/07 11:21:49;;;;;;;28.15;7.05;;;17.40;99.90;;;;;;5035278;28;20061;-77
2023/10/07 11:24:30;;;;;;;22.73;6.30;;;17.30;99.90;;;;;;5035396;28;20045;-77
2023/10/07 11:26:59;;;;;;;23.92;5.93;;;17.30;99.90;;;;;;5035391;28;20057;-78
2023/10/07 11:29:32;;;;;;;24.02;6.28;;;17.40;99.90;;;;;;5035107;28;20057;-77
2023/10/07 11:32:02;;;;;;;;;;;17.40;99.90;;;;;;5035803;28;20046;-77
2023/10/07 11:34:36;;;;;;;21.85;6.85;;;17.40;99.90;;;;;;5034843;28;19920;-77
2023/10/07 11:37:21;;;;;;;21.35;5.50;;;17.50;99.90;;;;;;5034976;28;20405;-77
2023/10/07 11:39:48;;;;;;;18.63;5.32;;;17.50;99.90;;;;;;5034729;28;20107;-77
2023/10/07 11:42:20;;;;;;;22.60;5.97;;;17.50;99.90;;;;;;5034835;28;20056;-77
2023/10/07 11:44:55;;;;;;;21.02;5.57;;;17.50;99.90;;;;;;5035087;28;20045;-77
2023/10/07 11:47:23;;;;;;;25.42;6.45;;;17.50;99.90;;;;;;5035144;28;20396;-77
2023/10/07 11:49:49;;;;;;;22.88;6.53;;;17.50;99.90;;;;;;5034726;28;20046;-79
2023/10/07 11:52:19;;;;;;;25.50;7.32;;;17.50;99.90;;;;;;5034980;28;20077;-76
2023/10/07 11:54:46;;;;;;;23.50;5.72;;;17.50;99.90;;;;;;5035652;28;20137;-79
2023/10/07 11:57:13;;;;;;;24.50;6.30;;;17.50;99.90;;;;;;5034577;28;20501;-78
2023/10/07 11:59:41;;;;;;;20.33;5.72;;;17.50;99.90;;;;;;5034731;28;20053;-77
2023/10/07 12:02:10;;;;;;;23.77;5.88;;;17.50;99.90;;;;;;5034526;28;20041;-76
2023/10/07 12:04:47;;;;;;;23.38;6.22;;;17.50;99.90;;;;;;5034399;28;20072;-78
2023/10/07 12:07:14;;;;;;;20.48;5.93;;;17.50;99.90;;;;;;5034438;28;20440;-77
2023/10/07 12:09:41;;;;;;;18.27;5.32;;;17.50;99.90;;;;;;5034244;28;20052;-78
2023/10/07 12:12:09;;;;;;;25.67;5.72;;;17.60;99.90;;;;;;5034166;28;20053;-79
2023/10/07 12:14:36;;;;;;;17.15;5.97;;;17.60;99.90;;;;;;5035718;28;20056;-80
2023/10/07 12:17:04;;;;;;;30.30;6.57;;;17.70;99.90;;;;;;5034457;28;20080;-78
2023/10/07 12:19:31;;;;;;;23.92;5.78;;;17.80;99.90;;;;;;5034400;28;20065;-80
2023/10/07 12:21:58;;;;;;;20.52;5.88;;;17.80;99.90;;;;;;5034187;28;20053;-77
2023/10/07 12:24:24;;;;;;;28.95;6.95;;;17.90;99.90;;;;;;5035424;28;20046;-78
2023/10/07 12:26:50;;;;;;;22.08;6.00;;;17.90;99.90;;;;;;5033994;28;20041;-80
2023/10/07 12:29:19;;;;;;;18.67;5.80;;;17.80;99.90;;;;;;5034298;28;20060;-80
2023/10/07 12:31:45;;;;;;;18.98;5.43;;;17.70;99.90;;;;;;5035368;28;20047;-77
2023/10/07 12:34:16;;;;;;;21.88;5.65;;;17.70;99.90;;;;;;5033890;28;20132;-77
2023/10/07 12:36:42;;;;;;;20.58;5.97;;;17.70;99.90;;;;;;5033839;28;20068;-78
2023/10/07 12:39:11;;;;;;;24.05;5.43;;;17.70;99.90;;;;;;5033860;28;20149;-79
2023/10/07 12:41:41;;;;;;;26.95;6.70;;;17.60;99.90;;;;;;5035197;28;20092;-78
2023/10/07 12:44:15;;;;;;;21.42;5.85;;;17.60;99.90;;;;;;5033677;28;20050;-79
2023/10/07 12:46:43;;;;;;;14.82;5.28;;;17.60;99.90;;;;;;5033926;28;20128;-79
2023/10/07 12:49:10;;;;;;;17.73;5.20;;;17.60;99.90;;;;;;5033837;28;20053;-78
2023/10/07 12:51:41;;;;;;;23.30;6.78;;;17.60;99.90;;;;;;5033429;28;20046;-77
2023/10/07 12:54:10;;;;;;;19.80;5.72;;;17.60;99.90;;;;;;5034789;28;20046;-77
2023/10/07 12:56:42;;;;;;;21.38;6.30;;;17.50;99.90;;;;;;5034917;28;20048;-77
2023/10/07 12:59:18;;;;;;;21.67;5.47;;;17.50;99.90;;;;;;5033754;28;20080;-78
2023/10/07 13:01:56;;;;;;;24.40;5.95;;;17.40;99.90;;;;;;5034879;28;20045;-77
2023/10/07 13:04:25;;;;;;;21.55;6.57;;;17.30;99.90;;;;;;5033598;28;20102;-77
2023/10/07 13:07:02;;;;;;;23.00;6.15;;;17.30;99.90;;;;;;5033275;28;20052;-77
2023/10/07 13:09:33;;;;;;;17.73;5.60;;;17.30;99.90;;;;;;5033503;28;20081;-77
2023/10/07 13:11:59;;;;;;;22.45;5.50;;;17.20;99.90;;;;;;5033441;28;20058;-76
2023/10/07 13:14:26;;;;;;;17.27;6.30;;;17.20;99.90;;;;;;5033025;28;20485;-77
2023/10/07 13:17:01;;;;;;;24.17;6.95;;;17.30;99.90;;;;;;5033313;28;20433;-76
2023/10/07 13:19:27;;;;;;;25.00;7.72;;;17.20;99.90;;;;;;5033053;28;20139;-77
2023/10/07 13:22:01;;;;;;;25.33;6.20;;;17.30;99.90;;;;;;5034375;28;20038;-77
2023/10/07 13:24:29;;;;;;;22.55;6.38;;;17.30;99.90;;;;;;5034531;28;20072;-77
2023/10/07 13:26:55;;;;;;;21.33;5.72;;;17.30;99.90;;;;;;5033049;28;20054;-77
2023/10/07 13:29:21;;;;;;;19.65;6.00;;;17.30;99.90;;;;;;5033188;28;20469;-77
2023/10/07 13:31:46;;;;;;;22.50;5.70;;;17.20;99.90;;;;;;5033810;28;20174;-78
2023/10/07 13:34:17;;;;;;;25.42;6.32;;;17.30;99.90;;;;;;5032447;28;20132;-78